createdAt,value
2018-11-26T05:49:12.193Z,14.93
2018-11-26T05:51:50.089Z,14.77
2018-11-26T05:54:26.868Z,15.20
2018-11-26T05:56:45.378Z,14.87
2018-11-26T06:00:08.451Z,15.33
2018-11-26T06:06:17.235Z,13.60
2018-11-26T06:08:45.710Z,14.33
2018-11-26T06:11:41.709Z,14.47
2018-11-26T06:14:10.315Z,15.03
2018-11-26T06:19:30.805Z,15.40
2018-11-26T06:22:01.830Z,14.40
2018-11-26T06:25:03.275Z,15.40
2018-11-26T06:28:03.687Z,16.67
2018-11-26T06:40:59.541Z,14.77
2018-11-26T06:53:37.427Z,16.73
2018-11-26T06:56:10.615Z,16.13
2018-11-26T06:59:03.804Z,16.17
2018-11-26T07:01:35.196Z,14.70
2018-11-26T07:04:05.415Z,15.73
2018-11-26T07:10:04.360Z,14.30
2018-11-26T07:12:31.609Z,15.17
2018-11-26T07:15:18.695Z,15.07
2018-11-26T07:19:21.495Z,14.50
2018-11-26T07:24:16.364Z,12.97
2018-11-26T07:26:48.031Z,13.47
2018-11-26T07:29:24.250Z,14.30
2018-11-26T07:31:49.681Z,14.60
2018-11-26T07:35:11.138Z,14.77
2018-11-26T07:37:40.140Z,13.70
2018-11-26T07:44:08.296Z,14.63
2018-11-26T07:49:28.412Z,14.73
2018-11-26T07:52:45.521Z,14.27
2018-11-26T07:58:02.247Z,14.70
2018-11-26T07:58:44.760Z,15.23
2018-11-26T08:00:32.319Z,15.57
2018-11-26T08:03:03.761Z,15.97
2018-11-26T08:05:41.997Z,18.93
2018-11-26T08:08:41.713Z,15.97
2018-11-26T08:14:29.897Z,14.60
2018-11-26T08:17:18.723Z,15.50
2018-11-26T08:19:50.431Z,14.27
2018-11-26T08:22:19.868Z,15.33
2018-11-26T08:24:50.735Z,13.50
2018-11-26T08:27:24.775Z,12.73
2018-11-26T08:30:02.072Z,13.33
2018-11-26T08:32:36.322Z,13.30
2018-11-26T08:35:07.519Z,12.80
2018-11-26T08:37:36.415Z,13.90
2018-11-26T08:44:09.618Z,12.10
2018-11-26T08:47:53.143Z,12.03
2018-11-26T08:50:48.989Z,12.10
2018-11-26T08:53:37.141Z,11.20
2018-11-26T08:56:06.690Z,12.20
2018-11-26T09:06:01.549Z,11.33
2018-11-26T09:08:24.561Z,11.33
2018-11-26T09:10:59.804Z,11.27
2018-11-26T09:13:51.274Z,10.23
2018-11-26T09:19:16.414Z,11.30
2018-11-26T09:25:14.289Z,9.77
2018-11-26T09:29:21.138Z,10.13
2018-11-26T09:32:31.739Z,9.67
2018-11-26T09:35:30.626Z,10.20
2018-11-26T09:38:53.921Z,9.83
2018-11-26T09:41:03.871Z,10.37
2018-11-26T09:51:23.326Z,10.47
2018-11-26T09:54:52.841Z,10.07
2018-11-26T09:57:18.103Z,9.90
2018-11-26T10:05:52.462Z,10.30
2018-11-26T10:06:54.785Z,11.23
2018-11-26T10:09:29.179Z,11.43
2018-11-26T10:15:53.449Z,12.97
2018-11-26T10:25:25.477Z,12.40
2018-11-26T10:28:12.943Z,11.57
2018-11-26T10:31:07.379Z,12.40
2018-11-26T10:34:36.180Z,12.07
2018-11-26T10:37:20.279Z,13.07
2018-11-26T10:40:18.120Z,12.53
2018-11-26T10:42:58.740Z,12.40
2018-11-26T10:45:51.361Z,12.77
2018-11-26T10:48:23.012Z,11.27
2018-11-26T10:51:30.954Z,11.70
2018-11-26T10:54:04.977Z,10.87
2018-11-26T10:57:03.269Z,12.10
2018-11-26T10:59:17.987Z,11.77
2018-11-26T11:02:22.443Z,11.47
2018-11-26T11:05:14.090Z,10.97
2018-11-26T11:07:32.843Z,11.37
2018-11-26T11:10:05.368Z,11.57
2018-11-26T11:13:00.542Z,11.17
2018-11-26T11:15:31.893Z,11.07
2018-11-26T11:18:00.991Z,11.03
2018-11-26T11:20:45.363Z,11.37
2018-11-26T11:24:19.661Z,10.83
2018-11-26T11:26:01.907Z,10.23
2018-11-26T11:28:30.699Z,10.37
2018-11-26T11:31:02.013Z,10.83
2018-11-26T11:33:40.830Z,10.50
2018-11-26T11:36:10.610Z,10.20
2018-11-26T11:42:09.311Z,10.40
2018-11-26T11:44:53.016Z,10.20
2018-11-26T11:52:21.223Z,10.60
2018-11-26T11:55:02.445Z,9.47
2018-11-26T12:01:05.250Z,10.53
2018-11-26T12:06:12.460Z,10.10
2018-11-26T12:07:04.865Z,9.77
2018-11-26T13:10:33.041Z,7.33
2018-11-26T13:14:02.944Z,7.80
2018-11-26T13:17:10.487Z,7.43
2018-11-26T13:23:19.319Z,7.37
2018-11-26T13:26:10.418Z,8.03
2018-11-26T13:28:50.973Z,8.33
2018-11-26T13:31:52.002Z,8.87
2018-11-26T13:34:36.411Z,8.40
2018-11-26T13:37:12.666Z,9.37
2018-11-26T13:39:44.413Z,9.57
2018-11-26T13:42:18.425Z,10.37
2018-11-26T13:44:41.116Z,10.70
2018-11-26T13:54:10.847Z,11.13
2018-11-26T13:56:42.861Z,10.57
2018-11-26T13:59:33.301Z,10.37
2018-11-26T14:12:12.958Z,11.43
2018-11-26T14:41:31.022Z,11.33
2018-11-26T14:43:44.437Z,11.47
2018-11-26T15:13:05.744Z,14.03
2018-11-26T15:15:44.977Z,13.43
2018-11-26T15:19:51.921Z,12.13
2018-11-26T15:23:06.410Z,13.37
2018-11-26T15:33:56.217Z,13.03
2018-11-26T15:36:25.501Z,13.40
2018-11-26T16:58:01.028Z,15.97
2018-11-26T18:47:25.489Z,16.77
2018-11-26T19:34:19.470Z,16.23
2018-11-26T20:00:21.281Z,15.50
2018-11-26T20:02:32.367Z,15.87
2018-11-26T20:05:11.868Z,16.37
2018-11-26T20:08:40.132Z,15.43
2018-11-26T20:11:09.291Z,16.13
2018-11-26T20:14:01.816Z,16.73
2018-11-26T20:20:34.360Z,16.73
2018-11-26T20:26:52.843Z,15.27
2018-11-26T20:29:22.507Z,14.90
2018-11-26T20:32:21.933Z,14.87
2018-11-26T20:35:16.835Z,15.07
2018-11-26T20:38:17.924Z,14.03
2018-11-26T20:40:19.156Z,15.67
2018-11-26T20:43:47.149Z,15.53
2018-11-26T20:47:02.577Z,14.03
2018-11-26T20:49:41.788Z,14.77
2018-11-26T20:52:23.923Z,15.63
2018-11-26T20:54:52.492Z,14.20
2018-11-26T20:58:22.505Z,14.97
2018-11-26T21:00:43.686Z,14.43
2018-11-26T21:03:52.660Z,14.63
2018-11-26T21:07:28.423Z,15.43
2018-11-26T21:10:33.336Z,15.03
2018-11-26T21:16:16.611Z,13.90
2018-11-26T21:19:12.491Z,14.87
2018-11-26T21:27:57.707Z,14.50
2018-11-26T21:30:35.969Z,15.60
2018-11-26T21:33:20.996Z,17.67
2018-11-26T21:35:52.299Z,15.57
2018-11-26T21:50:40.146Z,14.00
2018-11-26T22:00:46.725Z,15.07
2018-11-26T22:24:47.313Z,13.43
2018-11-26T22:30:57.348Z,15.63
2018-11-26T22:36:26.491Z,14.90
2018-11-26T22:39:19.664Z,15.17
2018-11-26T22:42:50.339Z,15.93
2018-11-26T23:01:23.677Z,15.60
2018-11-26T23:04:27.436Z,16.60
2018-11-26T23:13:33.792Z,15.57
2018-11-26T23:15:59.023Z,14.23
2018-11-26T23:18:26.248Z,15.93
2018-11-26T23:24:35.548Z,14.50
2018-11-26T23:27:52.249Z,14.90
